createdAt,value
2023-03-26T00:11:10.153Z,0
2023-03-26T00:23:10.120Z,0
2023-03-26T00:35:10.290Z,0
2023-03-26T00:47:10.241Z,0
2023-03-26T00:59:10.174Z,0
2023-03-26T01:11:00.231Z,2
2023-03-26T01:23:00.328Z,2
2023-03-26T01:35:00.318Z,2
2023-03-26T01:47:00.320Z,2
2023-03-26T01:59:00.238Z,2
2023-03-26T02:11:00.366Z,3
2023-03-26T02:23:00.345Z,3
2023-03-26T02:35:00.288Z,3
2023-03-26T02:47:00.305Z,3
2023-03-26T02:59:00.404Z,3
2023-03-26T03:11:00.387Z,4
2023-03-26T03:23:00.313Z,4
2023-03-26T03:35:00.502Z,4
2023-03-26T03:47:00.481Z,4
2023-03-26T03:59:00.416Z,4
2023-03-26T04:11:00.336Z,5
2023-03-26T04:23:00.345Z,5
2023-03-26T04:35:00.480Z,5
2023-03-26T04:47:00.597Z,5
2023-03-26T04:59:00.393Z,5
2023-03-26T05:11:00.571Z,6
2023-03-26T05:23:00.506Z,6
2023-03-26T05:35:00.499Z,6
2023-03-26T05:47:00.448Z,6
2023-03-26T05:59:00.617Z,6
2023-03-26T06:11:00.553Z,7
2023-03-26T06:23:00.519Z,7
2023-03-26T06:35:00.450Z,7
2023-03-26T06:47:00.716Z,7
2023-03-26T06:59:00.577Z,7
2023-03-26T07:11:00.566Z,8
2023-03-26T07:23:00.693Z,8
2023-03-26T07:35:00.681Z,8
2023-03-26T07:47:00.647Z,8
2023-03-26T07:59:00.582Z,8
2023-03-26T08:11:00.713Z,9
2023-03-26T08:23:00.694Z,9
2023-03-26T08:35:00.630Z,9
2023-03-26T08:47:00.842Z,9
2023-03-26T08:59:00.762Z,9
2023-03-26T09:11:00.740Z,10
2023-03-26T09:23:00.761Z,10
2023-03-26T09:35:00.852Z,10
2023-03-26T09:47:00.826Z,10
2023-03-26T09:59:00.772Z,10
2023-03-26T10:11:00.698Z,11
2023-03-26T10:23:00.884Z,11
2023-03-26T10:35:00.824Z,11
2023-03-26T10:47:01.266Z,11
2023-03-26T10:59:00.980Z,11
2023-03-26T11:11:00.993Z,12
2023-03-26T11:23:00.858Z,12
2023-03-26T11:35:00.825Z,12
2023-03-26T11:47:01.010Z,12
2023-03-26T11:59:00.943Z,12
2023-03-26T12:11:00.876Z,13
2023-03-26T12:23:00.857Z,13
2023-03-26T12:35:00.994Z,13
2023-03-26T12:47:54.791Z,13
2023-03-26T12:59:01.043Z,13
2023-03-26T13:11:01.032Z,14
2023-03-26T13:23:00.979Z,14
2023-03-26T13:35:00.925Z,14
2023-03-26T13:47:01.090Z,14
2023-03-26T13:59:01.040Z,14
2023-03-26T14:11:00.967Z,15
2023-03-26T14:23:00.944Z,15
2023-03-26T14:35:01.082Z,15
2023-03-26T14:47:01.131Z,15
2023-03-26T14:59:01.002Z,15
2023-03-26T15:11:01.208Z,16
2023-03-26T15:23:01.135Z,16
2023-03-26T15:35:01.083Z,16
2023-03-26T15:47:01.077Z,16
2023-03-26T15:59:01.221Z,16
2023-03-26T16:11:01.153Z,17
2023-03-26T16:23:01.130Z,17
2023-03-26T16:35:01.090Z,17
2023-03-26T16:59:01.292Z,17
2023-03-26T17:23:01.159Z,18
2023-03-26T17:35:01.247Z,18
2023-03-26T17:47:01.254Z,18
2023-03-26T17:59:11.381Z,18
2023-03-26T18:11:01.186Z,19
2023-03-26T18:23:01.365Z,19
2023-03-26T18:35:01.461Z,19
2023-03-26T18:47:01.234Z,19
2023-03-26T18:59:01.395Z,19
2023-03-26T19:11:01.342Z,20
2023-03-26T19:23:01.331Z,20
2023-03-26T19:35:01.246Z,20
2023-03-26T19:47:01.477Z,20
2023-03-26T19:59:01.352Z,20
2023-03-26T20:11:01.352Z,21
2023-03-26T20:23:01.515Z,21
2023-03-26T20:35:01.440Z,21
2023-03-26T20:47:01.376Z,21
2023-03-26T20:59:10.240Z,21
2023-03-26T21:11:01.499Z,22
2023-03-26T21:23:01.500Z,22
2023-03-26T21:35:01.416Z,22
2023-03-26T21:47:01.407Z,22
2023-03-26T21:59:01.524Z,22
2023-03-26T22:11:01.596Z,23
2023-03-26T22:23:01.445Z,23
2023-03-26T22:35:01.604Z,23
2023-03-26T22:47:01.525Z,23
2023-03-26T22:59:01.511Z,23
2023-03-26T23:11:01.436Z,0
2023-03-26T23:23:01.666Z,0
2023-03-26T23:35:01.562Z,0
2023-03-26T23:47:01.537Z,0
2023-03-26T23:59:01.681Z,0
